Time;durP1;ratioP1;P1;durP2;ratioP2;P2;SDS_P1;SDS_P2;PMS_P1;PMS_P2;Temp;Humidity;BMP_temperature;BMP_pressure;BME280_temperature;BME280_humidity;BME280_pressure;Samples;Min_cycle;Max_cycle;Signal;HPM_P1;HPM_P2
2022/04/27 00:10:02;;;;;;;41.90;27.10;;;;;;;2.72;76.00;99775.09;447291;1267;141626;-66
2022/04/27 00:20:10;;;;;;;39.00;27.20;;;;;;;2.55;76.05;99775.04;447861;1267;142497;-66
2022/04/27 00:30:14;;;;;;;;;;;;;;;2.45;76.26;99779.98;448050;1267;142604;-66
2022/04/27 00:40:20;;;;;;;35.60;25.30;;;;;;;2.45;76.30;99779.80;441879;1266;128882;-70
2022/04/27 00:50:26;;;;;;;38.70;25.10;;;;;;;2.53;76.52;99787.72;448034;1266;142738;-70
2022/04/27 01:00:32;;;;;;;35.20;24.50;;;;;;;2.53;76.51;99785.46;434102;1267;141666;-70
2022/04/27 01:10:38;;;;;;;36.70;21.60;;;;;;;2.44;76.35;99783.63;446774;1269;144716;-70
2022/04/27 01:20:44;;;;;;;35.60;24.40;;;;;;;2.40;76.67;99787.19;448064;1267;142243;-71
2022/04/27 01:30:57;;;;;;;37.60;25.10;;;;;;;2.29;76.23;99791.12;436324;1268;153581;-70
2022/04/27 01:41:03;;;;;;;36.20;25.00;;;;;;;2.19;76.74;99800.70;436541;1267;142301;-73
2022/04/27 01:51:11;;;;;;;33.80;23.50;;;;;;;2.09;77.25;99815.48;448050;1267;143411;-69
2022/04/27 02:01:17;;;;;;;35.80;23.60;;;;;;;1.99;76.93;99823.65;440082;1268;143198;-69
2022/04/27 02:11:24;;;;;;;35.30;24.10;;;;;;;1.94;76.59;99820.14;431914;1268;143556;-69
2022/04/27 02:21:31;;;;;;;48.10;24.50;;;;;;;1.84;76.63;99815.23;437811;1269;142383;-69
2022/04/27 02:31:37;;;;;;;44.70;23.00;;;;;;;1.75;76.96;99817.33;447319;1265;142493;-69
2022/04/27 02:41:43;;;;;;;35.10;23.70;;;;;;;1.62;76.53;99820.06;441802;1268;144900;-69
2022/04/27 02:51:52;;;;;;;59.30;27.80;;;;;;;1.46;76.55;99821.29;432549;1268;163788;-69
2022/04/27 03:01:58;;;;;;;34.30;22.90;;;;;;;1.31;76.88;99821.96;432097;1268;141965;-69
2022/04/27 03:12:05;;;;;;;45.60;24.80;;;;;;;1.20;76.93;99827.88;448023;1266;141775;-70
2022/04/27 03:22:10;;;;;;;41.60;28.20;;;;;;;1.11;76.90;99838.77;447077;1269;141897;-70
2022/04/27 03:32:16;;;;;;;48.60;29.10;;;;;;;1.13;76.99;99849.42;448096;1266;142894;-69
2022/04/27 03:42:22;;;;;;;46.70;29.10;;;;;;;1.33;76.93;99858.83;445256;1266;142784;-68
2022/04/27 03:52:28;;;;;;;46.70;29.30;;;;;;;1.65;76.85;99869.00;432151;1267;141551;-69
2022/04/27 04:02:36;;;;;;;49.50;29.30;;;;;;;2.20;77.34;99872.01;441868;1270;141761;-70
2022/04/27 04:12:42;;;;;;;51.20;29.60;;;;;;;2.82;77.40;99879.93;445138;1266;141722;-69
2022/04/27 04:22:49;;;;;;;54.60;30.30;;;;;;;3.37;77.01;99887.36;437008;1267;141880;-68
2022/04/27 04:32:55;;;;;;;53.20;28.80;;;;;;;4.10;76.16;99894.84;432485;1268;142638;-68
2022/04/27 04:43:01;;;;;;;49.30;29.90;;;;;;;4.83;75.34;99907.15;440871;1269;143673;-69
2022/04/27 04:53:07;;;;;;;49.90;30.50;;;;;;;5.36;74.99;99919.84;448100;1267;141934;-70
2022/04/27 05:03:13;;;;;;;66.50;42.80;;;;;;;5.79;74.86;99922.90;446566;1268;143189;-70
2022/04/27 05:13:19;;;;;;;54.10;37.50;;;;;;;6.37;74.70;99929.15;437992;1267;142836;-70
2022/04/27 05:23:25;;;;;;;55.00;37.50;;;;;;;7.00;74.34;99940.63;436815;1268;142182;-71
2022/04/27 05:33:30;;;;;;;59.60;40.70;;;;;;;7.43;73.97;99946.39;447979;1267;143290;-71
2022/04/27 05:43:36;;;;;;;52.00;35.30;;;;;;;7.76;73.71;99956.40;447258;1267;143099;-69
2022/04/27 05:53:43;;;;;;;44.20;32.40;;;;;;;8.29;73.46;99972.75;441879;1267;143011;-69
2022/04/27 06:03:48;;;;;;;42.40;28.20;;;;;;;9.08;72.77;99973.21;443590;1269;142468;-69
2022/04/27 06:13:55;;;;;;;40.80;26.40;;;;;;;9.80;71.63;99984.15;443455;1267;143831;-69
2022/04/27 06:24:04;;;;;;;35.90;24.90;;;;;;;10.19;70.53;100000.41;435105;1268;142868;-69
2022/04/27 06:34:11;;;;;;;42.10;26.20;;;;;;;10.73;69.90;100009.24;447311;1267;143114;-66
2022/04/27 06:44:17;;;;;;;41.50;27.50;;;;;;;11.74;69.12;100010.32;447846;1268;143096;-67
2022/04/27 06:54:23;;;;;;;35.60;27.00;;;;;;;12.95;67.54;100015.02;448085;1267;141628;-67
2022/04/27 07:04:29;;;;;;;45.70;28.40;;;;;;;14.55;65.30;100021.85;445520;1269;144836;-67
2022/04/27 07:14:35;;;;;;;45.20;29.40;;;;;;;16.46;62.45;100024.46;440810;1268;142195;-68
2022/04/27 07:24:40;;;;;;;33.50;24.10;;;;;;;18.27;59.16;100027.85;446967;1268;143132;-67
2022/04/27 07:34:47;;;;;;;34.00;25.80;;;;;;;19.79;56.74;100032.02;445851;1269;142375;-62
2022/04/27 07:44:52;;;;;;;22.10;19.70;;;;;;;24.10;53.37;100031.92;447782;1269;142129;-64
2022/04/27 07:54:58;;;;;;;18.70;16.60;;;;;;;29.41;45.72;100030.23;447058;1269;143339;-63
2022/04/27 08:05:02;;;;;;;;;;;;;;;30.15;40.37;100027.25;446984;1266;143875;-71
2022/04/27 08:15:10;;;;;;;14.80;12.00;;;;;;;31.25;37.72;100034.69;446553;1268;131416;-64
2022/04/27 08:25:16;;;;;;;20.10;13.90;;;;;;;29.31;34.12;100035.25;438333;1266;143084;-64
2022/04/27 08:35:22;;;;;;;18.00;12.90;;;;;;;25.64;35.40;100033.66;436438;1269;145277;-64
2022/04/27 08:45:29;;;;;;;11.80;10.70;;;;;;;24.61;35.36;100036.98;435752;1267;142657;-63
2022/04/27 08:55:35;;;;;;;;;;;;;;;22.90;34.42;100040.11;447046;1269;142659;-60
2022/04/27 09:05:51;;;;;;;10.70;9.60;;;;;;;21.79;34.67;100038.06;442339;1268;128753;-74
2022/04/27 09:16:02;;;;;;;11.60;9.00;;;;;;;20.46;34.96;100040.73;447354;1268;143478;-61
2022/04/27 09:26:19;;;;;;;13.90;10.20;;;;;;;18.67;35.68;100050.88;448128;1268;143128;-62
2022/04/27 09:36:25;;;;;;;11.40;9.60;;;;;;;17.86;36.61;100047.54;448058;1268;141363;-62
2022/04/27 09:46:31;;;;;;;11.10;8.90;;;;;;;18.03;36.59;100050.37;447333;1268;141525;-62
2022/04/27 09:56:39;;;;;;;10.20;9.30;;;;;;;17.74;36.75;100052.08;448126;1266;142488;-65
2022/04/27 10:06:45;;;;;;;12.50;7.90;;;;;;;17.35;37.33;100052.95;447854;1269;141598;-63
2022/04/27 10:16:52;;;;;;;12.60;6.90;;;;;;;16.97;37.24;100052.39;447928;1269;143106;-64
2022/04/27 10:27:15;;;;;;;8.70;6.90;;;;;;;16.95;37.10;100051.48;448078;1268;142773;-65
2022/04/27 10:37:48;;;;;;;7.20;5.80;;;;;;;16.78;37.22;100052.46;431540;1268;141323;-64
2022/04/27 10:47:55;;;;;;;9.00;5.50;;;;;;;16.65;37.27;100055.00;431469;1268;141503;-62
2022/04/27 10:58:15;;;;;;;16.00;6.50;;;;;;;17.27;36.63;100058.42;447300;1267;141379;-62
2022/04/27 11:08:31;;;;;;;15.30;4.70;;;;;;;17.42;36.00;100059.79;448131;1268;142384;-63
2022/04/27 11:18:51;;;;;;;9.20;6.60;;;;;;;17.32;35.96;100062.27;448111;1267;142478;-63
2022/04/27 11:28:58;;;;;;;6.30;5.70;;;;;;;16.75;36.62;100064.97;448094;1267;142618;-63
2022/04/27 11:39:04;;;;;;;8.30;5.50;;;;;;;16.41;37.10;100068.10;446247;1267;141323;-62
2022/04/27 11:49:12;;;;;;;20.70;5.90;;;;;;;16.29;37.14;100067.47;443179;1268;141637;-62
2022/04/27 11:59:17;;;;;;;5.20;4.70;;;;;;;16.32;36.97;100073.53;431713;1268;200361;-62
2022/04/27 12:09:24;;;;;;;7.30;5.60;;;;;;;16.04;36.71;100076.83;432497;1268;144123;-63
2022/04/27 12:19:32;;;;;;;8.00;6.40;;;;;;;15.95;36.92;100084.77;432292;1268;141695;-62
2022/04/27 12:29:39;;;;;;;10.00;5.30;;;;;;;15.60;37.80;100079.85;448138;1266;143626;-63
2022/04/27 12:39:45;;;;;;;5.70;5.10;;;;;;;15.52;37.54;100071.61;448130;1266;142850;-64
2022/04/27 12:50:01;;;;;;;5.50;4.70;;;;;;;15.78;37.20;100069.62;448114;1267;142041;-64
2022/04/27 13:00:12;;;;;;;8.00;5.60;;;;;;;16.16;37.15;100067.76;448160;1267;143389;-62
2022/04/27 13:20:41;;;;;;;6.50;4.90;;;;;;;16.74;36.43;100060.10;448099;1267;141208;-62
2022/04/27 13:30:47;;;;;;;5.20;4.20;;;;;;;17.08;36.31;100052.75;447270;1267;141589;-58
2022/04/27 13:40:53;;;;;;;10.90;3.50;;;;;;;16.78;36.32;100051.51;448064;1267;142338;-67
2022/04/27 13:51:00;;;;;;;5.10;3.00;;;;;;;16.38;36.48;100052.04;440983;1268;142332;-64
2022/04/27 14:01:06;;;;;;;3.70;3.30;;;;;;;16.55;36.33;100053.84;431435;1268;142203;-60
2022/04/27 14:13:10;;;;;;;2.50;2.20;;;;;;;16.50;35.17;100055.85;448025;1265;142722;-61
2022/04/27 14:21:41;;;;;;;5.50;2.30;;;;;;;16.51;34.48;100049.61;447216;1266;141778;-65
2022/04/27 14:31:47;;;;;;;2.80;1.30;;;;;;;16.54;32.85;100047.59;436453;1268;141522;-60
2022/04/27 14:41:53;;;;;;;13.50;3.30;;;;;;;16.48;32.53;100050.73;431543;1268;142152;-62
2022/04/27 14:51:59;;;;;;;4.60;2.10;;;;;;;16.13;33.59;100045.21;430376;1270;141711;-64
2022/04/27 15:02:06;;;;;;;4.30;2.60;;;;;;;15.74;34.07;100049.11;431442;1270;142764;-55
2022/04/27 15:12:13;;;;;;;4.20;2.90;;;;;;;15.47;34.58;100046.42;431423;1267;142558;-59
2022/04/27 15:32:42;;;;;;;11.50;3.30;;;;;;;14.68;36.45;100059.20;447933;1266;141838;-59
2022/04/27 15:42:48;;;;;;;3.30;2.70;;;;;;;14.09;37.22;100068.52;447179;1267;142452;-66
2022/04/27 15:52:54;;;;;;;7.30;4.00;;;;;;;13.71;38.11;100079.05;447995;1266;143048;-61
2022/04/27 16:03:00;;;;;;;4.90;3.60;;;;;;;13.42;39.53;100077.70;447717;1269;141275;-61
2022/04/27 16:13:06;;;;;;;6.20;5.00;;;;;;;13.26;40.54;100080.10;443006;1268;141480;-60
2022/04/27 16:23:12;;;;;;;4.00;3.30;;;;;;;13.21;41.02;100077.66;431639;1268;141742;-58
2022/04/27 16:33:18;;;;;;;5.00;4.20;;;;;;;13.15;40.85;100076.64;431848;1270;142964;-56
2022/04/27 16:43:24;;;;;;;12.30;4.80;;;;;;;13.12;41.08;100081.08;446376;1269;143130;-58
2022/04/27 16:53:31;;;;;;;3.70;3.10;;;;;;;13.21;40.93;100086.67;447765;1269;141978;-58
2022/04/27 17:03:42;;;;;;;5.40;2.90;;;;;;;13.14;40.77;100091.98;447989;1267;141889;-60
2022/04/27 17:13:48;;;;;;;3.90;3.40;;;;;;;13.20;40.78;100099.21;448066;1266;141987;-59
2022/04/27 17:24:00;;;;;;;4.00;3.50;;;;;;;12.66;41.14;100108.84;447853;1266;143243;-59
2022/04/27 17:34:06;;;;;;;7.20;4.40;;;;;;;12.31;41.61;100115.94;446931;1267;142968;-58
2022/04/27 17:44:13;;;;;;;5.30;4.40;;;;;;;12.04;42.12;100130.39;434433;1267;141938;-58
2022/04/27 17:54:18;;;;;;;7.30;4.00;;;;;;;11.69;42.67;100140.55;432457;1268;142569;-60
2022/04/27 18:04:24;;;;;;;7.90;5.00;;;;;;;11.27;43.33;100153.17;430679;1269;142092;-62
2022/04/27 18:14:31;;;;;;;18.80;6.70;;;;;;;10.80;44.22;100161.23;432872;1268;142049;-60
2022/04/27 18:24:37;;;;;;;18.60;6.60;;;;;;;10.38;45.82;100168.95;432267;1268;145565;-59
2022/04/27 18:34:44;;;;;;;21.30;7.60;;;;;;;9.96;47.75;100177.39;431727;1268;142426;-62
2022/04/27 18:55:13;;;;;;;22.60;8.50;;;;;;;9.21;50.55;100203.73;431539;1267;141093;-62
2022/04/27 19:05:19;;;;;;;60.80;13.40;;;;;;;8.97;51.83;100224.55;433464;1268;186463;-56
2022/04/27 19:15:25;;;;;;;55.00;14.30;;;;;;;8.75;53.16;100234.12;431695;1267;147044;-56
2022/04/27 19:25:31;;;;;;;30.20;10.40;;;;;;;8.40;54.29;100235.65;431886;1269;141735;-57
2022/04/27 19:35:37;;;;;;;19.50;6.10;;;;;;;8.04;55.59;100242.11;434694;1267;143265;-55
2022/04/27 19:46:16;;;;;;;23.00;8.80;;;;;;;7.65;55.98;100248.45;443319;1267;141904;-58
2022/04/27 19:56:15;;;;;;;25.00;9.60;;;;;;;7.33;56.87;100244.15;442159;1267;197818;-60
2022/04/27 20:06:21;;;;;;;25.60;11.10;;;;;;;7.08;57.43;100235.00;447753;1269;140725;-60
2022/04/27 20:16:27;;;;;;;31.10;11.70;;;;;;;6.90;58.14;100248.26;447153;1266;142682;-58
2022/04/27 20:26:33;;;;;;;27.10;8.90;;;;;;;6.73;59.10;100251.52;447657;1267;141864;-62
2022/04/27 20:36:39;;;;;;;23.30;9.10;;;;;;;6.56;59.38;100254.19;448002;1267;142119;-62
2022/04/27 20:46:45;;;;;;;43.80;13.10;;;;;;;6.47;60.08;100254.70;441875;1267;143357;-59
2022/04/27 20:56:51;;;;;;;34.30;11.70;;;;;;;6.36;60.73;100258.73;432137;1268;145485;-60
2022/04/27 21:06:57;;;;;;;24.80;11.20;;;;;;;6.21;60.83;100271.77;431649;1266;142169;-62
2022/04/27 21:17:04;;;;;;;21.60;10.30;;;;;;;6.04;61.55;100272.51;431721;1267;142082;-58
2022/04/27 21:27:10;;;;;;;24.40;11.10;;;;;;;5.89;62.04;100284.81;431702;1268;142338;-59
2022/04/27 21:37:15;;;;;;;24.00;11.60;;;;;;;5.67;62.53;100297.86;430305;1270;142507;-59
2022/04/27 21:47:21;;;;;;;26.20;14.90;;;;;;;5.43;62.90;100297.92;433882;1266;141925;-58
2022/04/27 21:57:27;;;;;;;33.90;17.60;;;;;;;5.22;63.17;100299.97;440592;1266;142328;-59
2022/04/27 22:07:33;;;;;;;33.50;21.40;;;;;;;4.99;63.46;100307.56;442913;1267;142349;-59
2022/04/27 22:17:39;;;;;;;40.00;23.50;;;;;;;4.80;64.02;100306.04;440041;1267;141522;-58
2022/04/27 22:27:45;;;;;;;43.00;27.00;;;;;;;4.63;64.41;100304.63;447754;1270;142442;-58
2022/04/27 22:37:50;;;;;;;54.10;32.90;;;;;;;4.45;64.39;100307.17;447996;1267;142830;-58
2022/04/27 22:47:56;;;;;;;54.40;36.70;;;;;;;4.27;65.00;100307.67;447575;1267;142126;-58
2022/04/27 22:58:02;;;;;;;55.60;31.70;;;;;;;4.03;65.17;100311.02;437409;1268;142718;-58
2022/04/27 23:18:32;;;;;;;59.20;34.90;;;;;;;3.58;66.26;100303.45;447976;1267;142923;-58
2022/04/27 23:28:39;;;;;;;62.80;39.80;;;;;;;3.49;66.73;100303.34;447165;1267;143733;-58
2022/04/27 23:38:44;;;;;;;67.10;42.80;;;;;;;3.43;66.86;100299.67;447569;1269;142105;-58
2022/04/27 23:48:50;;;;;;;53.80;32.60;;;;;;;3.27;67.17;100293.96;447180;1267;153311;-58
2022/04/27 23:58:56;;;;;;;65.80;40.60;;;;;;;3.12;67.45;100293.60;447580;1268;317429;-58
